Terminal Aerodrome Forecast
Issued by NWS

Home | Current Version | Previous Version | Text Only | Print | Product List | Glossary On
Versions: 1 2 3 4 5 6 7 8 9 10 11 12 13 14 15 16 17 18 19 20 21 22 23 24 25 26 27 28 29
000
FTUS45 KLKN 240717 AAA
TAFTPH
TAF AMD
KTPH 240717Z 2407/2506 33015G25KT P6SM SCT100 BKN150
     FM241800 31010KT P6SM VCTS SCT090CB BKN120
      TEMPO 2420/2424 VRB25KT -TSRA BKN080CB OVC100
     FM250200 34010KT P6SM VCSH BKN080 OVC120=

USA.gov is the U.S. government's official web portal to all federal, state and local government web resources and services.